sensor_id;sensor_type;location;lat;lon;timestamp;P1;durP1;ratioP1;P2;durP2;ratioP2
60464;SDS011;46314;52.392;9.758;2023-01-08T00:01:47;3.33;;;2.55;;
60464;SDS011;46314;52.392;9.758;2023-01-08T00:04:14;3.97;;;2.80;;
60464;SDS011;46314;52.392;9.758;2023-01-08T00:06:40;7.93;;;3.63;;
60464;SDS011;46314;52.392;9.758;2023-01-08T00:09:08;4.05;;;3.00;;
60464;SDS011;46314;52.392;9.758;2023-01-08T00:11:36;3.80;;;2.72;;
60464;SDS011;46314;52.392;9.758;2023-01-08T00:14:02;3.80;;;2.55;;
60464;SDS011;46314;52.392;9.758;2023-01-08T00:16:29;3.40;;;2.70;;
60464;SDS011;46314;52.392;9.758;2023-01-08T00:18:56;4.55;;;2.80;;
60464;SDS011;46314;52.392;9.758;2023-01-08T00:21:22;3.88;;;2.92;;
60464;SDS011;46314;52.392;9.758;2023-01-08T00:23:49;4.55;;;3.50;;
60464;SDS011;46314;52.392;9.758;2023-01-08T00:26:15;3.85;;;2.92;;
60464;SDS011;46314;52.392;9.758;2023-01-08T00:28:43;5.45;;;3.35;;
60464;SDS011;46314;52.392;9.758;2023-01-08T00:31:10;3.40;;;3.10;;
60464;SDS011;46314;52.392;9.758;2023-01-08T00:33:38;4.45;;;3.00;;
60464;SDS011;46314;52.392;9.758;2023-01-08T00:36:06;2.90;;;2.40;;
60464;SDS011;46314;52.392;9.758;2023-01-08T00:38:33;3.35;;;2.80;;
60464;SDS011;46314;52.392;9.758;2023-01-08T00:41:00;4.45;;;2.78;;
60464;SDS011;46314;52.392;9.758;2023-01-08T00:43:26;5.03;;;3.50;;
60464;SDS011;46314;52.392;9.758;2023-01-08T00:45:54;3.67;;;2.72;;
60464;SDS011;46314;52.392;9.758;2023-01-08T00:48:20;5.72;;;2.58;;
60464;SDS011;46314;52.392;9.758;2023-01-08T00:50:47;4.53;;;3.22;;
60464;SDS011;46314;52.392;9.758;2023-01-08T00:53:13;3.35;;;2.72;;
60464;SDS011;46314;52.392;9.758;2023-01-08T00:55:40;4.35;;;3.25;;
60464;SDS011;46314;52.392;9.758;2023-01-08T00:58:07;5.25;;;3.42;;
60464;SDS011;46314;52.392;9.758;2023-01-08T01:00:33;3.00;;;2.70;;
60464;SDS011;46314;52.392;9.758;2023-01-08T01:03:01;4.00;;;3.10;;
60464;SDS011;46314;52.392;9.758;2023-01-08T01:05:27;4.38;;;3.05;;
60464;SDS011;46314;52.392;9.758;2023-01-08T01:07:54;3.10;;;2.80;;
60464;SDS011;46314;52.392;9.758;2023-01-08T01:10:20;4.63;;;3.05;;
60464;SDS011;46314;52.392;9.758;2023-01-08T01:12:46;3.95;;;2.95;;
60464;SDS011;46314;52.392;9.758;2023-01-08T01:15:14;3.97;;;2.75;;
60464;SDS011;46314;52.392;9.758;2023-01-08T01:17:44;4.43;;;3.13;;
60464;SDS011;46314;52.392;9.758;2023-01-08T01:20:13;3.25;;;2.60;;
60464;SDS011;46314;52.392;9.758;2023-01-08T01:22:41;3.28;;;2.97;;
60464;SDS011;46314;52.392;9.758;2023-01-08T01:25:08;5.25;;;2.85;;
60464;SDS011;46314;52.392;9.758;2023-01-08T01:27:35;3.10;;;2.72;;
60464;SDS011;46314;52.392;9.758;2023-01-08T01:30:01;3.83;;;2.88;;
60464;SDS011;46314;52.392;9.758;2023-01-08T01:32:28;3.72;;;3.05;;
60464;SDS011;46314;52.392;9.758;2023-01-08T01:34:54;5.38;;;2.90;;
60464;SDS011;46314;52.392;9.758;2023-01-08T01:37:22;4.03;;;3.22;;
60464;SDS011;46314;52.392;9.758;2023-01-08T01:39:48;4.18;;;3.25;;
60464;SDS011;46314;52.392;9.758;2023-01-08T01:42:16;3.22;;;2.83;;
60464;SDS011;46314;52.392;9.758;2023-01-08T01:44:47;3.67;;;2.80;;
60464;SDS011;46314;52.392;9.758;2023-01-08T01:47:15;3.40;;;2.78;;
60464;SDS011;46314;52.392;9.758;2023-01-08T01:49:49;3.70;;;3.28;;
60464;SDS011;46314;52.392;9.758;2023-01-08T01:52:20;4.00;;;2.78;;
60464;SDS011;46314;52.392;9.758;2023-01-08T01:54:49;5.00;;;3.15;;
60464;SDS011;46314;52.392;9.758;2023-01-08T01:57:20;4.07;;;3.53;;
60464;SDS011;46314;52.392;9.758;2023-01-08T01:59:47;4.88;;;2.97;;
60464;SDS011;46314;52.392;9.758;2023-01-08T02:02:14;7.57;;;3.22;;
60464;SDS011;46314;52.392;9.758;2023-01-08T02:04:40;3.17;;;2.83;;
60464;SDS011;46314;52.392;9.758;2023-01-08T02:07:08;3.85;;;3.20;;
60464;SDS011;46314;52.392;9.758;2023-01-08T02:09:42;4.75;;;3.13;;
60464;SDS011;46314;52.392;9.758;2023-01-08T02:12:14;4.05;;;3.10;;
60464;SDS011;46314;52.392;9.758;2023-01-08T02:14:49;4.45;;;3.05;;
60464;SDS011;46314;52.392;9.758;2023-01-08T02:17:25;3.90;;;3.15;;
60464;SDS011;46314;52.392;9.758;2023-01-08T02:20:00;4.32;;;3.05;;
60464;SDS011;46314;52.392;9.758;2023-01-08T02:22:36;6.97;;;4.40;;
60464;SDS011;46314;52.392;9.758;2023-01-08T02:25:13;5.20;;;2.85;;
60464;SDS011;46314;52.392;9.758;2023-01-08T02:27:48;3.40;;;3.10;;
60464;SDS011;46314;52.392;9.758;2023-01-08T02:30:17;6.07;;;2.90;;
60464;SDS011;46314;52.392;9.758;2023-01-08T02:32:44;4.07;;;3.45;;
60464;SDS011;46314;52.392;9.758;2023-01-08T02:35:10;5.45;;;3.38;;
60464;SDS011;46314;52.392;9.758;2023-01-08T02:37:37;3.28;;;2.83;;
60464;SDS011;46314;52.392;9.758;2023-01-08T02:40:08;5.07;;;3.33;;
60464;SDS011;46314;52.392;9.758;2023-01-08T02:42:41;3.40;;;2.70;;
60464;SDS011;46314;52.392;9.758;2023-01-08T02:45:17;5.07;;;3.67;;
60464;SDS011;46314;52.392;9.758;2023-01-08T02:47:53;4.35;;;3.95;;
60464;SDS011;46314;52.392;9.758;2023-01-08T02:50:25;3.95;;;3.00;;
60464;SDS011;46314;52.392;9.758;2023-01-08T02:52:57;3.75;;;3.35;;
60464;SDS011;46314;52.392;9.758;2023-01-08T02:55:29;4.70;;;3.40;;
60464;SDS011;46314;52.392;9.758;2023-01-08T02:57:58;4.65;;;3.15;;
60464;SDS011;46314;52.392;9.758;2023-01-08T03:00:26;4.53;;;3.38;;
60464;SDS011;46314;52.392;9.758;2023-01-08T03:02:56;4.15;;;3.30;;
60464;SDS011;46314;52.392;9.758;2023-01-08T03:05:29;3.03;;;2.67;;
60464;SDS011;46314;52.392;9.758;2023-01-08T03:07:56;4.28;;;2.83;;
60464;SDS011;46314;52.392;9.758;2023-01-08T03:10:23;3.75;;;3.20;;
60464;SDS011;46314;52.392;9.758;2023-01-08T03:12:54;4.93;;;3.10;;
60464;SDS011;46314;52.392;9.758;2023-01-08T03:15:28;3.85;;;2.90;;
60464;SDS011;46314;52.392;9.758;2023-01-08T03:17:59;2.97;;;2.67;;
60464;SDS011;46314;52.392;9.758;2023-01-08T03:20:29;4.40;;;2.80;;
60464;SDS011;46314;52.392;9.758;2023-01-08T03:22:59;3.90;;;2.90;;
60464;SDS011;46314;52.392;9.758;2023-01-08T03:25:29;4.97;;;2.80;;
60464;SDS011;46314;52.392;9.758;2023-01-08T03:27:56;4.63;;;3.58;;
60464;SDS011;46314;52.392;9.758;2023-01-08T03:30:28;4.70;;;3.38;;
60464;SDS011;46314;52.392;9.758;2023-01-08T03:32:56;3.92;;;3.08;;
60464;SDS011;46314;52.392;9.758;2023-01-08T03:35:25;2.95;;;2.65;;
60464;SDS011;46314;52.392;9.758;2023-01-08T03:37:55;3.17;;;2.88;;
60464;SDS011;46314;52.392;9.758;2023-01-08T03:40:27;3.22;;;2.65;;
60464;SDS011;46314;52.392;9.758;2023-01-08T03:42:57;3.33;;;3.03;;
60464;SDS011;46314;52.392;9.758;2023-01-08T03:45:23;4.55;;;2.78;;
60464;SDS011;46314;52.392;9.758;2023-01-08T03:47:54;4.15;;;3.42;;
60464;SDS011;46314;52.392;9.758;2023-01-08T03:50:24;5.40;;;3.22;;
60464;SDS011;46314;52.392;9.758;2023-01-08T03:52:53;4.07;;;3.38;;
60464;SDS011;46314;52.392;9.758;2023-01-08T03:55:19;3.28;;;2.80;;
60464;SDS011;46314;52.392;9.758;2023-01-08T03:57:46;5.78;;;3.17;;
60464;SDS011;46314;52.392;9.758;2023-01-08T04:00:12;4.65;;;3.30;;
60464;SDS011;46314;52.392;9.758;2023-01-08T04:02:40;4.10;;;3.38;;
60464;SDS011;46314;52.392;9.758;2023-01-08T04:05:08;3.10;;;2.80;;
60464;SDS011;46314;52.392;9.758;2023-01-08T04:07:35;3.78;;;3.15;;
60464;SDS011;46314;52.392;9.758;2023-01-08T04:10:01;4.55;;;3.20;;
60464;SDS011;46314;52.392;9.758;2023-01-08T04:12:28;4.45;;;3.53;;
60464;SDS011;46314;52.392;9.758;2023-01-08T04:14:54;4.10;;;3.22;;
60464;SDS011;46314;52.392;9.758;2023-01-08T04:17:21;3.63;;;2.92;;
60464;SDS011;46314;52.392;9.758;2023-01-08T04:19:50;3.40;;;3.10;;
60464;SDS011;46314;52.392;9.758;2023-01-08T04:22:18;4.95;;;3.78;;
60464;SDS011;46314;52.392;9.758;2023-01-08T04:24:44;4.38;;;3.55;;
60464;SDS011;46314;52.392;9.758;2023-01-08T04:27:11;5.28;;;3.28;;
60464;SDS011;46314;52.392;9.758;2023-01-08T04:29:37;3.80;;;3.15;;
60464;SDS011;46314;52.392;9.758;2023-01-08T04:32:03;5.35;;;3.28;;
60464;SDS011;46314;52.392;9.758;2023-01-08T04:34:30;5.57;;;3.78;;
60464;SDS011;46314;52.392;9.758;2023-01-08T04:36:56;4.32;;;2.80;;
60464;SDS011;46314;52.392;9.758;2023-01-08T04:39:24;3.70;;;2.90;;
60464;SDS011;46314;52.392;9.758;2023-01-08T04:41:50;5.03;;;2.88;;
60464;SDS011;46314;52.392;9.758;2023-01-08T04:44:17;4.78;;;2.67;;
60464;SDS011;46314;52.392;9.758;2023-01-08T04:46:43;3.58;;;2.90;;
60464;SDS011;46314;52.392;9.758;2023-01-08T04:49:09;3.65;;;3.00;;
60464;SDS011;46314;52.392;9.758;2023-01-08T04:51:36;3.17;;;2.88;;
60464;SDS011;46314;52.392;9.758;2023-01-08T04:54:03;4.22;;;3.05;;
60464;SDS011;46314;52.392;9.758;2023-01-08T04:56:30;5.63;;;3.17;;
60464;SDS011;46314;52.392;9.758;2023-01-08T04:58:57;3.85;;;3.33;;
60464;SDS011;46314;52.392;9.758;2023-01-08T05:01:25;3.38;;;2.60;;
60464;SDS011;46314;52.392;9.758;2023-01-08T05:03:53;3.28;;;2.63;;
60464;SDS011;46314;52.392;9.758;2023-01-08T05:06:20;3.33;;;3.03;;
60464;SDS011;46314;52.392;9.758;2023-01-08T05:08:47;3.33;;;3.03;;
60464;SDS011;46314;52.392;9.758;2023-01-08T05:11:14;3.20;;;2.72;;
60464;SDS011;46314;52.392;9.758;2023-01-08T05:13:42;4.28;;;2.88;;
60464;SDS011;46314;52.392;9.758;2023-01-08T05:16:08;4.20;;;3.08;;
60464;SDS011;46314;52.392;9.758;2023-01-08T05:18:35;5.75;;;3.00;;
60464;SDS011;46314;52.392;9.758;2023-01-08T05:21:02;3.33;;;2.75;;
60464;SDS011;46314;52.392;9.758;2023-01-08T05:23:29;5.05;;;3.03;;
60464;SDS011;46314;52.392;9.758;2023-01-08T05:25:57;3.78;;;3.22;;
60464;SDS011;46314;52.392;9.758;2023-01-08T05:28:23;4.05;;;2.85;;
60464;SDS011;46314;52.392;9.758;2023-01-08T05:30:51;3.08;;;2.78;;
60464;SDS011;46314;52.392;9.758;2023-01-08T05:33:18;4.22;;;3.60;;
60464;SDS011;46314;52.392;9.758;2023-01-08T05:35:45;5.07;;;3.60;;
60464;SDS011;46314;52.392;9.758;2023-01-08T05:38:11;4.28;;;3.03;;
60464;SDS011;46314;52.392;9.758;2023-01-08T05:40:38;3.38;;;2.92;;
60464;SDS011;46314;52.392;9.758;2023-01-08T05:43:04;3.22;;;2.90;;
60464;SDS011;46314;52.392;9.758;2023-01-08T05:45:30;3.97;;;3.22;;
60464;SDS011;46314;52.392;9.758;2023-01-08T05:47:58;5.03;;;3.35;;
60464;SDS011;46314;52.392;9.758;2023-01-08T05:50:25;3.97;;;3.47;;
60464;SDS011;46314;52.392;9.758;2023-01-08T05:52:51;4.55;;;2.90;;
60464;SDS011;46314;52.392;9.758;2023-01-08T05:55:18;4.05;;;3.13;;
60464;SDS011;46314;52.392;9.758;2023-01-08T05:57:44;5.43;;;3.40;;
60464;SDS011;46314;52.392;9.758;2023-01-08T06:00:11;4.22;;;3.42;;
60464;SDS011;46314;52.392;9.758;2023-01-08T06:02:39;4.15;;;3.33;;
60464;SDS011;46314;52.392;9.758;2023-01-08T06:05:07;5.97;;;3.50;;
60464;SDS011;46314;52.392;9.758;2023-01-08T06:07:33;4.97;;;3.28;;
60464;SDS011;46314;52.392;9.758;2023-01-08T06:09:59;4.93;;;3.85;;
60464;SDS011;46314;52.392;9.758;2023-01-08T06:12:26;4.90;;;3.58;;
60464;SDS011;46314;52.392;9.758;2023-01-08T06:14:52;4.47;;;3.90;;
60464;SDS011;46314;52.392;9.758;2023-01-08T06:17:19;5.93;;;4.05;;
60464;SDS011;46314;52.392;9.758;2023-01-08T06:19:45;4.15;;;3.63;;
60464;SDS011;46314;52.392;9.758;2023-01-08T06:22:13;6.00;;;4.72;;
60464;SDS011;46314;52.392;9.758;2023-01-08T06:24:39;5.15;;;3.85;;
60464;SDS011;46314;52.392;9.758;2023-01-08T06:27:06;7.35;;;4.68;;
60464;SDS011;46314;52.392;9.758;2023-01-08T06:29:32;5.00;;;4.43;;
60464;SDS011;46314;52.392;9.758;2023-01-08T06:31:59;5.50;;;4.00;;
60464;SDS011;46314;52.392;9.758;2023-01-08T06:34:25;5.43;;;4.20;;
60464;SDS011;46314;52.392;9.758;2023-01-08T06:36:51;6.53;;;4.47;;
60464;SDS011;46314;52.392;9.758;2023-01-08T06:39:19;4.97;;;4.35;;
60464;SDS011;46314;52.392;9.758;2023-01-08T06:41:46;6.88;;;4.30;;
60464;SDS011;46314;52.392;9.758;2023-01-08T06:44:12;5.40;;;4.28;;
60464;SDS011;46314;52.392;9.758;2023-01-08T06:46:38;5.05;;;4.32;;
60464;SDS011;46314;52.392;9.758;2023-01-08T06:49:05;5.15;;;4.57;;
60464;SDS011;46314;52.392;9.758;2023-01-08T06:51:31;7.53;;;4.55;;
60464;SDS011;46314;52.392;9.758;2023-01-08T06:53:58;5.63;;;4.45;;
60464;SDS011;46314;52.392;9.758;2023-01-08T06:56:26;5.07;;;4.28;;
60464;SDS011;46314;52.392;9.758;2023-01-08T06:58:52;4.25;;;3.85;;
60464;SDS011;46314;52.392;9.758;2023-01-08T07:01:19;5.90;;;4.38;;
60464;SDS011;46314;52.392;9.758;2023-01-08T07:03:45;6.63;;;4.50;;
60464;SDS011;46314;52.392;9.758;2023-01-08T07:06:12;5.07;;;4.20;;
60464;SDS011;46314;52.392;9.758;2023-01-08T07:08:40;5.13;;;4.63;;
60464;SDS011;46314;52.392;9.758;2023-01-08T07:11:09;6.78;;;4.47;;
60464;SDS011;46314;52.392;9.758;2023-01-08T07:13:37;5.63;;;4.72;;
60464;SDS011;46314;52.392;9.758;2023-01-08T07:16:04;5.20;;;3.92;;
60464;SDS011;46314;52.392;9.758;2023-01-08T07:18:31;5.90;;;4.78;;
60464;SDS011;46314;52.392;9.758;2023-01-08T07:20:57;5.80;;;4.38;;
60464;SDS011;46314;52.392;9.758;2023-01-08T07:23:24;4.32;;;3.92;;
60464;SDS011;46314;52.392;9.758;2023-01-08T07:25:50;5.35;;;4.47;;
60464;SDS011;46314;52.392;9.758;2023-01-08T07:28:17;4.70;;;4.07;;
60464;SDS011;46314;52.392;9.758;2023-01-08T07:30:44;5.80;;;4.25;;
60464;SDS011;46314;52.392;9.758;2023-01-08T07:33:11;6.03;;;3.97;;
60464;SDS011;46314;52.392;9.758;2023-01-08T07:35:37;5.72;;;3.95;;
60464;SDS011;46314;52.392;9.758;2023-01-08T07:38:04;5.78;;;4.00;;
60464;SDS011;46314;52.392;9.758;2023-01-08T07:40:30;4.88;;;4.00;;
60464;SDS011;46314;52.392;9.758;2023-01-08T07:42:57;4.65;;;4.13;;
60464;SDS011;46314;52.392;9.758;2023-01-08T07:45:25;7.05;;;4.65;;
60464;SDS011;46314;52.392;9.758;2023-01-08T07:47:53;4.72;;;3.80;;
60464;SDS011;46314;52.392;9.758;2023-01-08T07:50:19;5.88;;;4.28;;
60464;SDS011;46314;52.392;9.758;2023-01-08T07:52:45;7.35;;;5.40;;
60464;SDS011;46314;52.392;9.758;2023-01-08T07:55:12;5.38;;;4.43;;
60464;SDS011;46314;52.392;9.758;2023-01-08T07:57:38;5.35;;;4.20;;
60464;SDS011;46314;52.392;9.758;2023-01-08T08:00:05;4.55;;;3.97;;
60464;SDS011;46314;52.392;9.758;2023-01-08T08:02:33;4.43;;;4.00;;
60464;SDS011;46314;52.392;9.758;2023-01-08T08:05:01;5.30;;;4.50;;
60464;SDS011;46314;52.392;9.758;2023-01-08T08:07:29;5.53;;;4.40;;
60464;SDS011;46314;52.392;9.758;2023-01-08T08:09:55;5.30;;;4.15;;
60464;SDS011;46314;52.392;9.758;2023-01-08T08:12:22;5.40;;;4.38;;
60464;SDS011;46314;52.392;9.758;2023-01-08T08:14:48;6.72;;;4.65;;
60464;SDS011;46314;52.392;9.758;2023-01-08T08:17:14;5.95;;;4.32;;
60464;SDS011;46314;52.392;9.758;2023-01-08T08:19:41;5.53;;;4.57;;
60464;SDS011;46314;52.392;9.758;2023-01-08T08:22:09;4.47;;;4.07;;
60464;SDS011;46314;52.392;9.758;2023-01-08T08:24:35;5.97;;;3.97;;
60464;SDS011;46314;52.392;9.758;2023-01-08T08:27:01;6.43;;;4.78;;
60464;SDS011;46314;52.392;9.758;2023-01-08T08:29:28;4.50;;;4.10;;
60464;SDS011;46314;52.392;9.758;2023-01-08T08:31:55;5.35;;;4.43;;
60464;SDS011;46314;52.392;9.758;2023-01-08T08:34:22;5.88;;;4.18;;
60464;SDS011;46314;52.392;9.758;2023-01-08T08:36:49;4.68;;;4.18;;
60464;SDS011;46314;52.392;9.758;2023-01-08T08:39:16;5.72;;;4.25;;
60464;SDS011;46314;52.392;9.758;2023-01-08T08:41:43;4.63;;;4.15;;
60464;SDS011;46314;52.392;9.758;2023-01-08T08:44:09;4.85;;;3.88;;
60464;SDS011;46314;52.392;9.758;2023-01-08T08:46:35;7.30;;;4.70;;
60464;SDS011;46314;52.392;9.758;2023-01-08T08:49:02;4.40;;;4.00;;
60464;SDS011;46314;52.392;9.758;2023-01-08T08:51:29;4.57;;;4.13;;
60464;SDS011;46314;52.392;9.758;2023-01-08T08:53:55;5.72;;;4.10;;
60464;SDS011;46314;52.392;9.758;2023-01-08T08:56:23;5.57;;;4.38;;
60464;SDS011;46314;52.392;9.758;2023-01-08T08:58:49;5.60;;;3.92;;
60464;SDS011;46314;52.392;9.758;2023-01-08T09:01:15;5.20;;;3.92;;
60464;SDS011;46314;52.392;9.758;2023-01-08T09:03:42;5.22;;;3.95;;
60464;SDS011;46314;52.392;9.758;2023-01-08T09:06:11;5.15;;;3.95;;
60464;SDS011;46314;52.392;9.758;2023-01-08T09:08:40;5.50;;;3.88;;
60464;SDS011;46314;52.392;9.758;2023-01-08T09:11:07;3.65;;;3.30;;
60464;SDS011;46314;52.392;9.758;2023-01-08T09:13:36;4.28;;;3.47;;
60464;SDS011;46314;52.392;9.758;2023-01-08T09:16:03;5.65;;;4.32;;
60464;SDS011;46314;52.392;9.758;2023-01-08T09:18:30;3.70;;;3.22;;
60464;SDS011;46314;52.392;9.758;2023-01-08T09:20:56;4.38;;;3.45;;
60464;SDS011;46314;52.392;9.758;2023-01-08T09:23:23;4.28;;;2.85;;
60464;SDS011;46314;52.392;9.758;2023-01-08T09:25:49;4.20;;;3.42;;
60464;SDS011;46314;52.392;9.758;2023-01-08T09:28:24;3.50;;;2.95;;
60464;SDS011;46314;52.392;9.758;2023-01-08T09:30:52;3.80;;;3.08;;
60464;SDS011;46314;52.392;9.758;2023-01-08T09:33:18;3.42;;;3.13;;
60464;SDS011;46314;52.392;9.758;2023-01-08T09:35:45;4.00;;;3.28;;
60464;SDS011;46314;52.392;9.758;2023-01-08T09:38:11;5.15;;;3.38;;
60464;SDS011;46314;52.392;9.758;2023-01-08T09:40:39;3.42;;;3.13;;
60464;SDS011;46314;52.392;9.758;2023-01-08T09:43:13;4.00;;;3.50;;
60464;SDS011;46314;52.392;9.758;2023-01-08T09:45:43;3.85;;;3.20;;
60464;SDS011;46314;52.392;9.758;2023-01-08T09:48:16;6.07;;;3.25;;
60464;SDS011;46314;52.392;9.758;2023-01-08T09:50:45;4.10;;;2.78;;
60464;SDS011;46314;52.392;9.758;2023-01-08T09:53:13;5.43;;;3.42;;
60464;SDS011;46314;52.392;9.758;2023-01-08T09:55:41;3.17;;;2.83;;
60464;SDS011;46314;52.392;9.758;2023-01-08T09:58:11;2.80;;;2.47;;
60464;SDS011;46314;52.392;9.758;2023-01-08T10:00:47;3.22;;;2.70;;
60464;SDS011;46314;52.392;9.758;2023-01-08T10:03:13;3.38;;;2.40;;
60464;SDS011;46314;52.392;9.758;2023-01-08T10:05:41;2.40;;;2.20;;
60464;SDS011;46314;52.392;9.758;2023-01-08T10:08:08;3.60;;;2.13;;
60464;SDS011;46314;52.392;9.758;2023-01-08T10:10:38;2.55;;;2.30;;
60464;SDS011;46314;52.392;9.758;2023-01-08T10:13:07;3.80;;;2.63;;
60464;SDS011;46314;52.392;9.758;2023-01-08T10:15:36;2.92;;;2.30;;
60464;SDS011;46314;52.392;9.758;2023-01-08T10:18:04;1.98;;;1.73;;
60464;SDS011;46314;52.392;9.758;2023-01-08T10:20:32;1.95;;;1.75;;
60464;SDS011;46314;52.392;9.758;2023-01-08T10:23:08;2.25;;;2.00;;
60464;SDS011;46314;52.392;9.758;2023-01-08T10:25:46;3.65;;;2.15;;
60464;SDS011;46314;52.392;9.758;2023-01-08T10:28:16;1.70;;;1.58;;
60464;SDS011;46314;52.392;9.758;2023-01-08T10:30:44;2.20;;;1.80;;
60464;SDS011;46314;52.392;9.758;2023-01-08T10:33:12;2.10;;;1.63;;
60464;SDS011;46314;52.392;9.758;2023-01-08T10:35:49;2.63;;;2.22;;
60464;SDS011;46314;52.392;9.758;2023-01-08T10:38:26;2.35;;;1.67;;
60464;SDS011;46314;52.392;9.758;2023-01-08T10:40:59;4.85;;;2.10;;
60464;SDS011;46314;52.392;9.758;2023-01-08T10:43:28;2.20;;;1.77;;
60464;SDS011;46314;52.392;9.758;2023-01-08T10:45:59;2.20;;;1.83;;
60464;SDS011;46314;52.392;9.758;2023-01-08T10:48:29;1.77;;;1.67;;
60464;SDS011;46314;52.392;9.758;2023-01-08T10:51:06;1.95;;;1.50;;
60464;SDS011;46314;52.392;9.758;2023-01-08T10:53:39;2.15;;;1.60;;
60464;SDS011;46314;52.392;9.758;2023-01-08T10:56:16;1.75;;;1.30;;
60464;SDS011;46314;52.392;9.758;2023-01-08T10:58:44;1.55;;;1.45;;
60464;SDS011;46314;52.392;9.758;2023-01-08T11:01:11;2.15;;;1.45;;
60464;SDS011;46314;52.392;9.758;2023-01-08T11:03:42;2.80;;;1.40;;
60464;SDS011;46314;52.392;9.758;2023-01-08T11:06:16;2.53;;;1.52;;
60464;SDS011;46314;52.392;9.758;2023-01-08T11:08:54;2.42;;;1.58;;
60464;SDS011;46314;52.392;9.758;2023-01-08T11:11:23;2.08;;;1.38;;
60464;SDS011;46314;52.392;9.758;2023-01-08T11:13:56;1.88;;;1.50;;
60464;SDS011;46314;52.392;9.758;2023-01-08T11:16:29;4.00;;;1.63;;
60464;SDS011;46314;52.392;9.758;2023-01-08T11:18:57;2.35;;;1.23;;
60464;SDS011;46314;52.392;9.758;2023-01-08T11:21:25;2.30;;;1.58;;
60464;SDS011;46314;52.392;9.758;2023-01-08T11:24:02;1.17;;;1.00;;
60464;SDS011;46314;52.392;9.758;2023-01-08T11:26:35;1.40;;;1.23;;
60464;SDS011;46314;52.392;9.758;2023-01-08T11:29:06;1.65;;;1.00;;
60464;SDS011;46314;52.392;9.758;2023-01-08T11:31:40;2.13;;;1.45;;
60464;SDS011;46314;52.392;9.758;2023-01-08T11:34:11;1.50;;;1.10;;
60464;SDS011;46314;52.392;9.758;2023-01-08T11:36:43;1.05;;;0.75;;
60464;SDS011;46314;52.392;9.758;2023-01-08T11:39:15;5.25;;;1.50;;
60464;SDS011;46314;52.392;9.758;2023-01-08T11:41:54;2.38;;;1.23;;
60464;SDS011;46314;52.392;9.758;2023-01-08T11:44:32;2.42;;;1.10;;
60464;SDS011;46314;52.392;9.758;2023-01-08T11:47:06;1.33;;;1.00;;
60464;SDS011;46314;52.392;9.758;2023-01-08T11:49:49;1.00;;;0.90;;
60464;SDS011;46314;52.392;9.758;2023-01-08T11:52:28;3.25;;;1.10;;
60464;SDS011;46314;52.392;9.758;2023-01-08T11:55:09;1.85;;;1.15;;
60464;SDS011;46314;52.392;9.758;2023-01-08T11:57:45;2.17;;;1.20;;
60464;SDS011;46314;52.392;9.758;2023-01-08T12:03:20;2.80;;;1.77;;
60464;SDS011;46314;52.392;9.758;2023-01-08T12:05:59;2.63;;;1.25;;
60464;SDS011;46314;52.392;9.758;2023-01-08T12:08:36;4.65;;;1.42;;
60464;SDS011;46314;52.392;9.758;2023-01-08T12:11:13;2.40;;;1.45;;
60464;SDS011;46314;52.392;9.758;2023-01-08T12:16:47;1.92;;;1.17;;
60464;SDS011;46314;52.392;9.758;2023-01-08T12:19:29;2.15;;;1.13;;
60464;SDS011;46314;52.392;9.758;2023-01-08T12:22:09;5.55;;;1.25;;
60464;SDS011;46314;52.392;9.758;2023-01-08T12:24:56;4.55;;;1.20;;
60464;SDS011;46314;52.392;9.758;2023-01-08T12:27:48;5.07;;;1.10;;
60464;SDS011;46314;52.392;9.758;2023-01-08T12:30:24;2.80;;;1.10;;
60464;SDS011;46314;52.392;9.758;2023-01-08T12:33:03;4.93;;;1.77;;
60464;SDS011;46314;52.392;9.758;2023-01-08T12:35:35;2.65;;;1.27;;
60464;SDS011;46314;52.392;9.758;2023-01-08T12:38:07;2.42;;;1.33;;
60464;SDS011;46314;52.392;9.758;2023-01-08T12:40:39;1.52;;;1.00;;
60464;SDS011;46314;52.392;9.758;2023-01-08T12:43:13;2.30;;;1.42;;
60464;SDS011;46314;52.392;9.758;2023-01-08T12:45:42;4.72;;;1.38;;
60464;SDS011;46314;52.392;9.758;2023-01-08T12:48:11;4.05;;;1.48;;
60464;SDS011;46314;52.392;9.758;2023-01-08T12:50:43;3.55;;;1.75;;
60464;SDS011;46314;52.392;9.758;2023-01-08T12:53:20;2.38;;;1.73;;
60464;SDS011;46314;52.392;9.758;2023-01-08T12:55:55;4.75;;;1.80;;
60464;SDS011;46314;52.392;9.758;2023-01-08T12:58:31;4.45;;;2.05;;
60464;SDS011;46314;52.392;9.758;2023-01-08T13:01:10;3.80;;;2.17;;
60464;SDS011;46314;52.392;9.758;2023-01-08T13:03:47;5.30;;;2.15;;
60464;SDS011;46314;52.392;9.758;2023-01-08T13:06:15;4.15;;;2.33;;
60464;SDS011;46314;52.392;9.758;2023-01-08T13:08:44;5.03;;;2.33;;
60464;SDS011;46314;52.392;9.758;2023-01-08T13:11:22;3.38;;;1.45;;
60464;SDS011;46314;52.392;9.758;2023-01-08T13:13:58;6.13;;;1.80;;
60464;SDS011;46314;52.392;9.758;2023-01-08T13:16:26;7.55;;;3.05;;
60464;SDS011;46314;52.392;9.758;2023-01-08T13:18:54;7.43;;;2.53;;
60464;SDS011;46314;52.392;9.758;2023-01-08T13:21:31;6.03;;;2.13;;
60464;SDS011;46314;52.392;9.758;2023-01-08T13:24:05;4.05;;;1.27;;
60464;SDS011;46314;52.392;9.758;2023-01-08T13:26:48;2.75;;;1.85;;
60464;SDS011;46314;52.392;9.758;2023-01-08T13:29:34;3.92;;;1.50;;
60464;SDS011;46314;52.392;9.758;2023-01-08T13:32:02;4.88;;;1.52;;
60464;SDS011;46314;52.392;9.758;2023-01-08T13:34:35;2.10;;;1.30;;
60464;SDS011;46314;52.392;9.758;2023-01-08T13:37:03;4.28;;;1.48;;
60464;SDS011;46314;52.392;9.758;2023-01-08T13:39:32;5.25;;;1.58;;
60464;SDS011;46314;52.392;9.758;2023-01-08T13:42:20;2.38;;;1.20;;
60464;SDS011;46314;52.392;9.758;2023-01-08T13:44:59;4.82;;;1.65;;
60464;SDS011;46314;52.392;9.758;2023-01-08T13:47:30;2.78;;;1.10;;
60464;SDS011;46314;52.392;9.758;2023-01-08T13:49:58;2.67;;;1.40;;
60464;SDS011;46314;52.392;9.758;2023-01-08T13:52:32;6.20;;;1.60;;
60464;SDS011;46314;52.392;9.758;2023-01-08T13:55:03;3.42;;;1.48;;
60464;SDS011;46314;52.392;9.758;2023-01-08T13:57:33;3.58;;;1.25;;
60464;SDS011;46314;52.392;9.758;2023-01-08T14:00:06;3.65;;;1.20;;
60464;SDS011;46314;52.392;9.758;2023-01-08T14:02:41;3.20;;;1.05;;
60464;SDS011;46314;52.392;9.758;2023-01-08T14:05:13;3.53;;;1.23;;
60464;SDS011;46314;52.392;9.758;2023-01-08T14:07:45;4.40;;;1.40;;
60464;SDS011;46314;52.392;9.758;2023-01-08T14:10:12;2.88;;;1.20;;
60464;SDS011;46314;52.392;9.758;2023-01-08T14:12:39;2.85;;;1.27;;
60464;SDS011;46314;52.392;9.758;2023-01-08T14:15:11;4.35;;;1.42;;
60464;SDS011;46314;52.392;9.758;2023-01-08T14:17:46;4.38;;;1.42;;
60464;SDS011;46314;52.392;9.758;2023-01-08T14:20:19;3.30;;;1.30;;
60464;SDS011;46314;52.392;9.758;2023-01-08T14:22:53;4.07;;;1.48;;
60464;SDS011;46314;52.392;9.758;2023-01-08T14:25:20;5.15;;;1.50;;
60464;SDS011;46314;52.392;9.758;2023-01-08T14:27:54;4.05;;;1.17;;
60464;SDS011;46314;52.392;9.758;2023-01-08T14:30:27;4.65;;;1.52;;
60464;SDS011;46314;52.392;9.758;2023-01-08T14:32:54;2.38;;;1.20;;
60464;SDS011;46314;52.392;9.758;2023-01-08T14:35:25;3.10;;;1.40;;
60464;SDS011;46314;52.392;9.758;2023-01-08T14:37:54;2.47;;;1.30;;
60464;SDS011;46314;52.392;9.758;2023-01-08T14:40:27;2.05;;;1.30;;
60464;SDS011;46314;52.392;9.758;2023-01-08T14:42:59;3.38;;;1.63;;
60464;SDS011;46314;52.392;9.758;2023-01-08T14:45:32;3.00;;;1.35;;
60464;SDS011;46314;52.392;9.758;2023-01-08T14:48:00;4.15;;;1.20;;
60464;SDS011;46314;52.392;9.758;2023-01-08T14:50:35;1.25;;;1.00;;
60464;SDS011;46314;52.392;9.758;2023-01-08T14:53:04;1.48;;;1.10;;
60464;SDS011;46314;52.392;9.758;2023-01-08T14:55:33;2.25;;;1.00;;
60464;SDS011;46314;52.392;9.758;2023-01-08T14:58:02;3.30;;;2.00;;
60464;SDS011;46314;52.392;9.758;2023-01-08T15:00:29;3.92;;;2.13;;
60464;SDS011;46314;52.392;9.758;2023-01-08T15:02:58;4.20;;;1.48;;
60464;SDS011;46314;52.392;9.758;2023-01-08T15:05:25;2.85;;;1.30;;
60464;SDS011;46314;52.392;9.758;2023-01-08T15:07:55;3.72;;;1.73;;